sensor_id;sensor_type;location;lat;lon;timestamp;P1;P2;P0
73973;PMS5003;62336;-26.094;27.994;2023-07-31T00:01:33;5;5;
73973;PMS5003;62336;-26.094;27.994;2023-07-31T00:03:59;5;5;
73973;PMS5003;62336;-26.094;27.994;2023-07-31T00:06:24;6;6;
73973;PMS5003;62336;-26.094;27.994;2023-07-31T00:08:49;3;3;
73973;PMS5003;62336;-26.094;27.994;2023-07-31T00:11:14;5;5;
73973;PMS5003;62336;-26.094;27.994;2023-07-31T00:13:39;5;5;
73973;PMS5003;62336;-26.094;27.994;2023-07-31T00:16:04;5;5;
73973;PMS5003;62336;-26.094;27.994;2023-07-31T00:18:29;3;3;
73973;PMS5003;62336;-26.094;27.994;2023-07-31T00:20:54;4;4;
73973;PMS5003;62336;-26.094;27.994;2023-07-31T00:23:19;3;3;
73973;PMS5003;62336;-26.094;27.994;2023-07-31T00:25:44;5;5;
73973;PMS5003;62336;-26.094;27.994;2023-07-31T00:28:10;5;4;
73973;PMS5003;62336;-26.094;27.994;2023-07-31T00:30:35;6;6;
73973;PMS5003;62336;-26.094;27.994;2023-07-31T00:33:00;3;2;
73973;PMS5003;62336;-26.094;27.994;2023-07-31T00:35:25;4;3;
73973;PMS5003;62336;-26.094;27.994;2023-07-31T00:37:50;4;3;
73973;PMS5003;62336;-26.094;27.994;2023-07-31T00:40:15;2;2;
73973;PMS5003;62336;-26.094;27.994;2023-07-31T00:42:41;3;2;
73973;PMS5003;62336;-26.094;27.994;2023-07-31T00:45:06;2;2;
73973;PMS5003;62336;-26.094;27.994;2023-07-31T00:47:31;3;3;
73973;PMS5003;62336;-26.094;27.994;2023-07-31T00:49:56;0;0;
73973;PMS5003;62336;-26.094;27.994;2023-07-31T00:52:21;2;2;
73973;PMS5003;62336;-26.094;27.994;2023-07-31T00:54:46;3;3;
73973;PMS5003;62336;-26.094;27.994;2023-07-31T00:57:11;2;2;
73973;PMS5003;62336;-26.094;27.994;2023-07-31T00:59:36;2;2;
73973;PMS5003;62336;-26.094;27.994;2023-07-31T01:02:01;2;2;
73973;PMS5003;62336;-26.094;27.994;2023-07-31T01:04:26;3;2;
73973;PMS5003;62336;-26.094;27.994;2023-07-31T01:06:53;1;1;
73973;PMS5003;62336;-26.094;27.994;2023-07-31T01:09:19;2;2;
73973;PMS5003;62336;-26.094;27.994;2023-07-31T01:11:42;2;1;
73973;PMS5003;62336;-26.094;27.994;2023-07-31T01:14:06;2;1;
73973;PMS5003;62336;-26.094;27.994;2023-07-31T01:16:32;1;1;
73973;PMS5003;62336;-26.094;27.994;2023-07-31T01:18:57;1;1;
73973;PMS5003;62336;-26.094;27.994;2023-07-31T01:23:51;0;0;
73973;PMS5003;62336;-26.094;27.994;2023-07-31T01:26:12;0;0;
73973;PMS5003;62336;-26.094;27.994;2023-07-31T01:28:39;1;1;
73973;PMS5003;62336;-26.094;27.994;2023-07-31T01:31:02;1;1;
73973;PMS5003;62336;-26.094;27.994;2023-07-31T01:33:28;1;1;
73973;PMS5003;62336;-26.094;27.994;2023-07-31T01:35:52;2;2;
73973;PMS5003;62336;-26.094;27.994;2023-07-31T01:38:20;0;0;
73973;PMS5003;62336;-26.094;27.994;2023-07-31T01:40:42;1;1;
73973;PMS5003;62336;-26.094;27.994;2023-07-31T01:43:07;2;2;
73973;PMS5003;62336;-26.094;27.994;2023-07-31T01:45:33;2;1;
73973;PMS5003;62336;-26.094;27.994;2023-07-31T01:47:58;2;2;
73973;PMS5003;62336;-26.094;27.994;2023-07-31T01:50:23;1;1;
73973;PMS5003;62336;-26.094;27.994;2023-07-31T01:52:48;2;2;
73973;PMS5003;62336;-26.094;27.994;2023-07-31T01:55:13;0;0;
73973;PMS5003;62336;-26.094;27.994;2023-07-31T01:57:38;2;2;
73973;PMS5003;62336;-26.094;27.994;2023-07-31T02:00:03;1;1;
73973;PMS5003;62336;-26.094;27.994;2023-07-31T02:02:28;0;0;
73973;PMS5003;62336;-26.094;27.994;2023-07-31T02:04:53;1;1;
73973;PMS5003;62336;-26.094;27.994;2023-07-31T02:07:18;3;3;
73973;PMS5003;62336;-26.094;27.994;2023-07-31T02:09:43;2;2;
73973;PMS5003;62336;-26.094;27.994;2023-07-31T02:12:09;1;1;
73973;PMS5003;62336;-26.094;27.994;2023-07-31T02:14:33;1;0;
73973;PMS5003;62336;-26.094;27.994;2023-07-31T02:16:59;1;1;
73973;PMS5003;62336;-26.094;27.994;2023-07-31T02:19:24;2;2;
73973;PMS5003;62336;-26.094;27.994;2023-07-31T02:21:49;2;2;
73973;PMS5003;62336;-26.094;27.994;2023-07-31T02:24:14;2;1;
73973;PMS5003;62336;-26.094;27.994;2023-07-31T02:26:39;1;1;
73973;PMS5003;62336;-26.094;27.994;2023-07-31T02:29:04;3;3;
73973;PMS5003;62336;-26.094;27.994;2023-07-31T02:31:29;3;3;
73973;PMS5003;62336;-26.094;27.994;2023-07-31T02:33:54;3;3;
73973;PMS5003;62336;-26.094;27.994;2023-07-31T02:36:19;2;2;
73973;PMS5003;62336;-26.094;27.994;2023-07-31T02:38:44;3;3;
73973;PMS5003;62336;-26.094;27.994;2023-07-31T02:41:09;3;3;
73973;PMS5003;62336;-26.094;27.994;2023-07-31T02:43:35;3;3;
73973;PMS5003;62336;-26.094;27.994;2023-07-31T02:46:00;5;4;
73973;PMS5003;62336;-26.094;27.994;2023-07-31T02:48:25;8;8;
73973;PMS5003;62336;-26.094;27.994;2023-07-31T02:50:50;13;11;
73973;PMS5003;62336;-26.094;27.994;2023-07-31T02:53:15;8;7;
73973;PMS5003;62336;-26.094;27.994;2023-07-31T02:55:43;9;9;
73973;PMS5003;62336;-26.094;27.994;2023-07-31T02:58:06;5;5;
73973;PMS5003;62336;-26.094;27.994;2023-07-31T03:00:30;4;4;
73973;PMS5003;62336;-26.094;27.994;2023-07-31T03:02:55;6;6;
73973;PMS5003;62336;-26.094;27.994;2023-07-31T03:05:21;7;6;
73973;PMS5003;62336;-26.094;27.994;2023-07-31T03:07:46;6;6;
73973;PMS5003;62336;-26.094;27.994;2023-07-31T03:10:11;11;8;
73973;PMS5003;62336;-26.094;27.994;2023-07-31T03:12:36;10;9;
73973;PMS5003;62336;-26.094;27.994;2023-07-31T03:15:01;10;8;
73973;PMS5003;62336;-26.094;27.994;2023-07-31T03:17:26;8;7;
73973;PMS5003;62336;-26.094;27.994;2023-07-31T03:19:51;10;9;
73973;PMS5003;62336;-26.094;27.994;2023-07-31T03:22:17;12;10;
73973;PMS5003;62336;-26.094;27.994;2023-07-31T03:24:41;9;8;
73973;PMS5003;62336;-26.094;27.994;2023-07-31T03:27:06;8;8;
73973;PMS5003;62336;-26.094;27.994;2023-07-31T03:29:32;11;10;
73973;PMS5003;62336;-26.094;27.994;2023-07-31T03:31:57;11;11;
73973;PMS5003;62336;-26.094;27.994;2023-07-31T03:34:23;11;10;
73973;PMS5003;62336;-26.094;27.994;2023-07-31T03:36:48;12;12;
73973;PMS5003;62336;-26.094;27.994;2023-07-31T03:39:14;12;11;
73973;PMS5003;62336;-26.094;27.994;2023-07-31T03:41:39;17;16;
73973;PMS5003;62336;-26.094;27.994;2023-07-31T03:44:05;15;13;
73973;PMS5003;62336;-26.094;27.994;2023-07-31T03:46:31;14;13;
73973;PMS5003;62336;-26.094;27.994;2023-07-31T03:48:56;18;16;
73973;PMS5003;62336;-26.094;27.994;2023-07-31T03:51:21;17;17;
73973;PMS5003;62336;-26.094;27.994;2023-07-31T03:53:46;19;19;
73973;PMS5003;62336;-26.094;27.994;2023-07-31T03:56:11;22;18;
73973;PMS5003;62336;-26.094;27.994;2023-07-31T03:58:37;21;21;
73973;PMS5003;62336;-26.094;27.994;2023-07-31T04:01:02;23;21;
73973;PMS5003;62336;-26.094;27.994;2023-07-31T04:03:27;22;20;
73973;PMS5003;62336;-26.094;27.994;2023-07-31T04:05:53;23;19;
73973;PMS5003;62336;-26.094;27.994;2023-07-31T04:08:18;19;18;
73973;PMS5003;62336;-26.094;27.994;2023-07-31T04:10:43;19;17;
73973;PMS5003;62336;-26.094;27.994;2023-07-31T04:13:08;20;18;
73973;PMS5003;62336;-26.094;27.994;2023-07-31T04:15:34;21;18;
73973;PMS5003;62336;-26.094;27.994;2023-07-31T04:18:00;24;24;
73973;PMS5003;62336;-26.094;27.994;2023-07-31T04:20:25;25;22;
73973;PMS5003;62336;-26.094;27.994;2023-07-31T04:22:51;22;22;
73973;PMS5003;62336;-26.094;27.994;2023-07-31T04:25:16;25;23;
73973;PMS5003;62336;-26.094;27.994;2023-07-31T04:27:42;21;20;
73973;PMS5003;62336;-26.094;27.994;2023-07-31T04:30:08;23;20;
73973;PMS5003;62336;-26.094;27.994;2023-07-31T04:32:33;19;18;
73973;PMS5003;62336;-26.094;27.994;2023-07-31T04:34:58;21;19;
73973;PMS5003;62336;-26.094;27.994;2023-07-31T04:37:24;21;19;
73973;PMS5003;62336;-26.094;27.994;2023-07-31T04:39:50;20;18;
73973;PMS5003;62336;-26.094;27.994;2023-07-31T04:42:15;22;20;
73973;PMS5003;62336;-26.094;27.994;2023-07-31T04:44:41;21;19;
73973;PMS5003;62336;-26.094;27.994;2023-07-31T04:47:07;20;20;
73973;PMS5003;62336;-26.094;27.994;2023-07-31T04:49:32;17;15;
73973;PMS5003;62336;-26.094;27.994;2023-07-31T04:51:58;22;19;
73973;PMS5003;62336;-26.094;27.994;2023-07-31T04:54:23;20;18;
73973;PMS5003;62336;-26.094;27.994;2023-07-31T04:56:48;16;15;
73973;PMS5003;62336;-26.094;27.994;2023-07-31T04:59:14;19;18;
73973;PMS5003;62336;-26.094;27.994;2023-07-31T05:01:39;17;16;
73973;PMS5003;62336;-26.094;27.994;2023-07-31T05:04:04;24;18;
73973;PMS5003;62336;-26.094;27.994;2023-07-31T05:06:29;21;19;
73973;PMS5003;62336;-26.094;27.994;2023-07-31T05:08:54;17;16;
73973;PMS5003;62336;-26.094;27.994;2023-07-31T05:11:19;13;11;
73973;PMS5003;62336;-26.094;27.994;2023-07-31T05:13:45;15;14;
73973;PMS5003;62336;-26.094;27.994;2023-07-31T05:16:10;15;14;
73973;PMS5003;62336;-26.094;27.994;2023-07-31T05:18:36;17;17;
73973;PMS5003;62336;-26.094;27.994;2023-07-31T05:21:03;15;14;
73973;PMS5003;62336;-26.094;27.994;2023-07-31T05:23:27;14;14;
73973;PMS5003;62336;-26.094;27.994;2023-07-31T05:25:52;15;15;
73973;PMS5003;62336;-26.094;27.994;2023-07-31T05:28:17;21;19;
73973;PMS5003;62336;-26.094;27.994;2023-07-31T05:30:43;21;20;
73973;PMS5003;62336;-26.094;27.994;2023-07-31T05:33:08;22;21;
73973;PMS5003;62336;-26.094;27.994;2023-07-31T05:35:35;14;13;
73973;PMS5003;62336;-26.094;27.994;2023-07-31T05:38:00;18;15;
73973;PMS5003;62336;-26.094;27.994;2023-07-31T05:40:25;12;12;
73973;PMS5003;62336;-26.094;27.994;2023-07-31T05:42:50;13;11;
73973;PMS5003;62336;-26.094;27.994;2023-07-31T05:45:15;13;13;
73973;PMS5003;62336;-26.094;27.994;2023-07-31T05:47:40;16;15;
73973;PMS5003;62336;-26.094;27.994;2023-07-31T05:50:05;11;11;
73973;PMS5003;62336;-26.094;27.994;2023-07-31T05:52:30;14;13;
73973;PMS5003;62336;-26.094;27.994;2023-07-31T05:54:55;12;11;
73973;PMS5003;62336;-26.094;27.994;2023-07-31T05:57:20;11;11;
73973;PMS5003;62336;-26.094;27.994;2023-07-31T05:59:46;14;13;
73973;PMS5003;62336;-26.094;27.994;2023-07-31T06:02:11;15;13;
73973;PMS5003;62336;-26.094;27.994;2023-07-31T06:04:37;12;11;
73973;PMS5003;62336;-26.094;27.994;2023-07-31T06:07:02;12;12;
73973;PMS5003;62336;-26.094;27.994;2023-07-31T06:09:27;9;8;
73973;PMS5003;62336;-26.094;27.994;2023-07-31T06:11:52;8;8;
73973;PMS5003;62336;-26.094;27.994;2023-07-31T06:14:17;9;9;
73973;PMS5003;62336;-26.094;27.994;2023-07-31T06:16:42;7;7;
73973;PMS5003;62336;-26.094;27.994;2023-07-31T06:19:07;11;10;
73973;PMS5003;62336;-26.094;27.994;2023-07-31T06:21:32;10;9;
73973;PMS5003;62336;-26.094;27.994;2023-07-31T06:23:58;11;11;
73973;PMS5003;62336;-26.094;27.994;2023-07-31T06:26:22;11;11;
73973;PMS5003;62336;-26.094;27.994;2023-07-31T06:28:48;13;11;
73973;PMS5003;62336;-26.094;27.994;2023-07-31T06:31:13;9;9;
73973;PMS5003;62336;-26.094;27.994;2023-07-31T06:33:38;14;11;
73973;PMS5003;62336;-26.094;27.994;2023-07-31T06:36:03;11;11;
73973;PMS5003;62336;-26.094;27.994;2023-07-31T06:38:28;15;11;
73973;PMS5003;62336;-26.094;27.994;2023-07-31T06:40:54;13;12;
73973;PMS5003;62336;-26.094;27.994;2023-07-31T06:43:19;10;10;
73973;PMS5003;62336;-26.094;27.994;2023-07-31T06:45:44;12;12;
73973;PMS5003;62336;-26.094;27.994;2023-07-31T06:48:09;13;12;
73973;PMS5003;62336;-26.094;27.994;2023-07-31T06:50:34;13;10;
73973;PMS5003;62336;-26.094;27.994;2023-07-31T06:52:59;13;13;
73973;PMS5003;62336;-26.094;27.994;2023-07-31T06:55:24;18;17;
73973;PMS5003;62336;-26.094;27.994;2023-07-31T06:57:50;14;14;
73973;PMS5003;62336;-26.094;27.994;2023-07-31T07:00:16;13;12;
73973;PMS5003;62336;-26.094;27.994;2023-07-31T07:02:40;11;10;
73973;PMS5003;62336;-26.094;27.994;2023-07-31T07:05:10;9;9;
73973;PMS5003;62336;-26.094;27.994;2023-07-31T07:07:31;8;8;
73973;PMS5003;62336;-26.094;27.994;2023-07-31T07:09:56;6;6;
73973;PMS5003;62336;-26.094;27.994;2023-07-31T07:12:21;9;8;
73973;PMS5003;62336;-26.094;27.994;2023-07-31T07:14:47;13;11;
73973;PMS5003;62336;-26.094;27.994;2023-07-31T07:17:12;8;8;
73973;PMS5003;62336;-26.094;27.994;2023-07-31T07:19:39;9;9;
73973;PMS5003;62336;-26.094;27.994;2023-07-31T07:22:02;9;9;
73973;PMS5003;62336;-26.094;27.994;2023-07-31T07:24:27;9;9;
73973;PMS5003;62336;-26.094;27.994;2023-07-31T07:26:52;12;11;
73973;PMS5003;62336;-26.094;27.994;2023-07-31T07:29:17;15;14;
73973;PMS5003;62336;-26.094;27.994;2023-07-31T07:31:43;23;22;
73973;PMS5003;62336;-26.094;27.994;2023-07-31T07:34:09;22;22;
73973;PMS5003;62336;-26.094;27.994;2023-07-31T07:36:34;36;34;
73973;PMS5003;62336;-26.094;27.994;2023-07-31T07:38:59;31;29;
73973;PMS5003;62336;-26.094;27.994;2023-07-31T07:41:25;33;33;
73973;PMS5003;62336;-26.094;27.994;2023-07-31T07:43:49;39;34;
73973;PMS5003;62336;-26.094;27.994;2023-07-31T07:46:15;39;35;
73973;PMS5003;62336;-26.094;27.994;2023-07-31T07:48:41;31;28;
73973;PMS5003;62336;-26.094;27.994;2023-07-31T07:51:05;24;19;
73973;PMS5003;62336;-26.094;27.994;2023-07-31T07:53:31;15;14;
73973;PMS5003;62336;-26.094;27.994;2023-07-31T07:55:56;12;11;
73973;PMS5003;62336;-26.094;27.994;2023-07-31T07:58:22;6;6;
73973;PMS5003;62336;-26.094;27.994;2023-07-31T08:00:48;5;5;
73973;PMS5003;62336;-26.094;27.994;2023-07-31T08:03:12;4;4;
73973;PMS5003;62336;-26.094;27.994;2023-07-31T08:05:37;8;7;
73973;PMS5003;62336;-26.094;27.994;2023-07-31T08:08:02;6;6;
73973;PMS5003;62336;-26.094;27.994;2023-07-31T08:10:27;6;5;
73973;PMS5003;62336;-26.094;27.994;2023-07-31T08:12:52;5;5;
73973;PMS5003;62336;-26.094;27.994;2023-07-31T08:15:17;6;6;
73973;PMS5003;62336;-26.094;27.994;2023-07-31T08:17:42;6;6;
73973;PMS5003;62336;-26.094;27.994;2023-07-31T08:20:08;6;5;
73973;PMS5003;62336;-26.094;27.994;2023-07-31T08:22:32;4;4;
73973;PMS5003;62336;-26.094;27.994;2023-07-31T08:24:58;4;3;
73973;PMS5003;62336;-26.094;27.994;2023-07-31T08:27:23;4;4;
73973;PMS5003;62336;-26.094;27.994;2023-07-31T08:29:48;8;7;
73973;PMS5003;62336;-26.094;27.994;2023-07-31T08:32:13;9;7;
73973;PMS5003;62336;-26.094;27.994;2023-07-31T08:34:38;7;6;
73973;PMS5003;62336;-26.094;27.994;2023-07-31T08:37:04;5;4;
73973;PMS5003;62336;-26.094;27.994;2023-07-31T08:39:28;6;6;
73973;PMS5003;62336;-26.094;27.994;2023-07-31T08:41:57;7;6;
73973;PMS5003;62336;-26.094;27.994;2023-07-31T08:44:18;7;6;
73973;PMS5003;62336;-26.094;27.994;2023-07-31T08:46:44;6;5;
73973;PMS5003;62336;-26.094;27.994;2023-07-31T08:49:09;8;7;
73973;PMS5003;62336;-26.094;27.994;2023-07-31T08:51:34;8;7;
73973;PMS5003;62336;-26.094;27.994;2023-07-31T08:53:59;8;8;
73973;PMS5003;62336;-26.094;27.994;2023-07-31T08:56:24;5;4;
73973;PMS5003;62336;-26.094;27.994;2023-07-31T08:58:49;5;4;
73973;PMS5003;62336;-26.094;27.994;2023-07-31T09:01:14;4;4;
73973;PMS5003;62336;-26.094;27.994;2023-07-31T09:03:39;3;3;
73973;PMS5003;62336;-26.094;27.994;2023-07-31T09:06:04;3;3;
73973;PMS5003;62336;-26.094;27.994;2023-07-31T09:08:30;3;3;
73973;PMS5003;62336;-26.094;27.994;2023-07-31T09:10:54;4;3;
73973;PMS5003;62336;-26.094;27.994;2023-07-31T09:13:20;3;3;
73973;PMS5003;62336;-26.094;27.994;2023-07-31T09:15:45;3;3;
73973;PMS5003;62336;-26.094;27.994;2023-07-31T09:18:09;2;2;
73973;PMS5003;62336;-26.094;27.994;2023-07-31T09:20:35;3;3;
73973;PMS5003;62336;-26.094;27.994;2023-07-31T09:25:25;2;2;
73973;PMS5003;62336;-26.094;27.994;2023-07-31T09:27:50;2;2;
73973;PMS5003;62336;-26.094;27.994;2023-07-31T09:30:15;2;2;
73973;PMS5003;62336;-26.094;27.994;2023-07-31T09:32:40;2;2;
73973;PMS5003;62336;-26.094;27.994;2023-07-31T09:37:30;6;5;
73973;PMS5003;62336;-26.094;27.994;2023-07-31T09:39:55;3;3;
73973;PMS5003;62336;-26.094;27.994;2023-07-31T09:42:24;3;3;
73973;PMS5003;62336;-26.094;27.994;2023-07-31T09:44:45;4;4;
73973;PMS5003;62336;-26.094;27.994;2023-07-31T09:49:35;6;6;
73973;PMS5003;62336;-26.094;27.994;2023-07-31T09:52:00;5;4;
73973;PMS5003;62336;-26.094;27.994;2023-07-31T09:54:25;4;4;
73973;PMS5003;62336;-26.094;27.994;2023-07-31T09:56:50;6;5;
73973;PMS5003;62336;-26.094;27.994;2023-07-31T09:59:16;12;12;
73973;PMS5003;62336;-26.094;27.994;2023-07-31T10:01:42;4;4;
73973;PMS5003;62336;-26.094;27.994;2023-07-31T10:04:06;4;4;
73973;PMS5003;62336;-26.094;27.994;2023-07-31T10:06:32;4;4;
73973;PMS5003;62336;-26.094;27.994;2023-07-31T10:08:56;5;4;
73973;PMS5003;62336;-26.094;27.994;2023-07-31T10:11:21;7;7;
73973;PMS5003;62336;-26.094;27.994;2023-07-31T10:13:47;13;11;
73973;PMS5003;62336;-26.094;27.994;2023-07-31T10:16:12;5;3;
73973;PMS5003;62336;-26.094;27.994;2023-07-31T10:18:37;3;3;
73973;PMS5003;62336;-26.094;27.994;2023-07-31T10:21:02;4;4;
73973;PMS5003;62336;-26.094;27.994;2023-07-31T10:23:27;15;14;
73973;PMS5003;62336;-26.094;27.994;2023-07-31T10:25:53;18;17;
73973;PMS5003;62336;-26.094;27.994;2023-07-31T10:28:17;11;11;
73973;PMS5003;62336;-26.094;27.994;2023-07-31T10:30:43;6;5;
73973;PMS5003;62336;-26.094;27.994;2023-07-31T10:33:09;9;8;
73973;PMS5003;62336;-26.094;27.994;2023-07-31T10:35:34;6;6;
73973;PMS5003;62336;-26.094;27.994;2023-07-31T10:40:24;3;1;
73973;PMS5003;62336;-26.094;27.994;2023-07-31T10:42:50;1;1;
73973;PMS5003;62336;-26.094;27.994;2023-07-31T10:45:14;2;1;
73973;PMS5003;62336;-26.094;27.994;2023-07-31T10:47:43;4;3;
73973;PMS5003;62336;-26.094;27.994;2023-07-31T10:50:11;3;3;
73973;PMS5003;62336;-26.094;27.994;2023-07-31T10:52:29;1;1;
73973;PMS5003;62336;-26.094;27.994;2023-07-31T10:57:21;2;2;
73973;PMS5003;62336;-26.094;27.994;2023-07-31T10:59:45;3;3;
73973;PMS5003;62336;-26.094;27.994;2023-07-31T11:04:36;4;4;
73973;PMS5003;62336;-26.094;27.994;2023-07-31T11:07:01;4;4;
73973;PMS5003;62336;-26.094;27.994;2023-07-31T11:09:28;3;3;
73973;PMS5003;62336;-26.094;27.994;2023-07-31T11:11:52;5;3;
73973;PMS5003;62336;-26.094;27.994;2023-07-31T11:14:17;5;4;
73973;PMS5003;62336;-26.094;27.994;2023-07-31T11:16:42;6;6;
73973;PMS5003;62336;-26.094;27.994;2023-07-31T11:19:08;11;10;
73973;PMS5003;62336;-26.094;27.994;2023-07-31T11:21:32;9;8;
73973;PMS5003;62336;-26.094;27.994;2023-07-31T11:23:57;7;7;
73973;PMS5003;62336;-26.094;27.994;2023-07-31T11:26:23;1;1;
73973;PMS5003;62336;-26.094;27.994;2023-07-31T11:28:47;7;5;
73973;PMS5003;62336;-26.094;27.994;2023-07-31T11:31:12;5;5;
73973;PMS5003;62336;-26.094;27.994;2023-07-31T11:33:37;4;4;
73973;PMS5003;62336;-26.094;27.994;2023-07-31T11:36:02;8;8;
73973;PMS5003;62336;-26.094;27.994;2023-07-31T11:38:28;5;5;
73973;PMS5003;62336;-26.094;27.994;2023-07-31T11:40:52;4;4;
73973;PMS5003;62336;-26.094;27.994;2023-07-31T11:43:17;3;3;
73973;PMS5003;62336;-26.094;27.994;2023-07-31T11:45:42;1;1;
73973;PMS5003;62336;-26.094;27.994;2023-07-31T11:48:07;0;0;
73973;PMS5003;62336;-26.094;27.994;2023-07-31T11:50:33;2;2;
73973;PMS5003;62336;-26.094;27.994;2023-07-31T11:52:59;2;2;
73973;PMS5003;62336;-26.094;27.994;2023-07-31T11:55:23;2;2;
73973;PMS5003;62336;-26.094;27.994;2023-07-31T11:57:49;0;0;
73973;PMS5003;62336;-26.094;27.994;2023-07-31T12:00:14;3;3;
73973;PMS5003;62336;-26.094;27.994;2023-07-31T12:02:39;2;2;
73973;PMS5003;62336;-26.094;27.994;2023-07-31T12:05:04;2;2;
73973;PMS5003;62336;-26.094;27.994;2023-07-31T12:09:54;3;2;
73973;PMS5003;62336;-26.094;27.994;2023-07-31T12:12:19;2;2;
73973;PMS5003;62336;-26.094;27.994;2023-07-31T12:14:44;2;2;
73973;PMS5003;62336;-26.094;27.994;2023-07-31T12:17:09;4;4;
73973;PMS5003;62336;-26.094;27.994;2023-07-31T12:19:34;7;6;
73973;PMS5003;62336;-26.094;27.994;2023-07-31T12:21:59;5;4;
73973;PMS5003;62336;-26.094;27.994;2023-07-31T12:24:25;8;6;
73973;PMS5003;62336;-26.094;27.994;2023-07-31T12:26:50;5;4;
73973;PMS5003;62336;-26.094;27.994;2023-07-31T12:29:15;5;5;
73973;PMS5003;62336;-26.094;27.994;2023-07-31T12:31:41;2;2;
73973;PMS5003;62336;-26.094;27.994;2023-07-31T12:34:14;3;3;
73973;PMS5003;62336;-26.094;27.994;2023-07-31T12:36:31;5;2;
73973;PMS5003;62336;-26.094;27.994;2023-07-31T12:38:57;1;1;
73973;PMS5003;62336;-26.094;27.994;2023-07-31T12:41:22;1;1;
73973;PMS5003;62336;-26.094;27.994;2023-07-31T12:43:47;1;1;
73973;PMS5003;62336;-26.094;27.994;2023-07-31T12:46:13;5;3;
73973;PMS5003;62336;-26.094;27.994;2023-07-31T12:48:39;5;5;
73973;PMS5003;62336;-26.094;27.994;2023-07-31T12:51:04;1;1;
73973;PMS5003;62336;-26.094;27.994;2023-07-31T12:53:30;2;2;
73973;PMS5003;62336;-26.094;27.994;2023-07-31T12:55:54;3;2;
73973;PMS5003;62336;-26.094;27.994;2023-07-31T12:58:19;2;2;
73973;PMS5003;62336;-26.094;27.994;2023-07-31T13:00:46;2;2;
73973;PMS5003;62336;-26.094;27.994;2023-07-31T13:03:10;2;2;
73973;PMS5003;62336;-26.094;27.994;2023-07-31T13:05:36;1;1;
73973;PMS5003;62336;-26.094;27.994;2023-07-31T13:08:00;3;3;
73973;PMS5003;62336;-26.094;27.994;2023-07-31T13:10:26;2;2;
73973;PMS5003;62336;-26.094;27.994;2023-07-31T13:12:50;2;2;
73973;PMS5003;62336;-26.094;27.994;2023-07-31T13:15:16;2;2;
73973;PMS5003;62336;-26.094;27.994;2023-07-31T13:17:40;2;2;
73973;PMS5003;62336;-26.094;27.994;2023-07-31T13:20:06;2;1;
73973;PMS5003;62336;-26.094;27.994;2023-07-31T13:22:31;2;2;
73973;PMS5003;62336;-26.094;27.994;2023-07-31T13:24:55;2;2;
73973;PMS5003;62336;-26.094;27.994;2023-07-31T13:27:21;3;2;
73973;PMS5003;62336;-26.094;27.994;2023-07-31T13:29:46;6;5;
73973;PMS5003;62336;-26.094;27.994;2023-07-31T13:32:11;4;4;
73973;PMS5003;62336;-26.094;27.994;2023-07-31T13:34:36;5;4;
73973;PMS5003;62336;-26.094;27.994;2023-07-31T13:37:01;5;4;
73973;PMS5003;62336;-26.094;27.994;2023-07-31T13:39:26;3;3;
73973;PMS5003;62336;-26.094;27.994;2023-07-31T13:41:52;5;5;
73973;PMS5003;62336;-26.094;27.994;2023-07-31T13:44:17;5;2;
73973;PMS5003;62336;-26.094;27.994;2023-07-31T13:46:42;3;3;
73973;PMS5003;62336;-26.094;27.994;2023-07-31T13:49:07;7;7;
73973;PMS5003;62336;-26.094;27.994;2023-07-31T13:51:32;6;6;
73973;PMS5003;62336;-26.094;27.994;2023-07-31T13:53:57;13;12;
73973;PMS5003;62336;-26.094;27.994;2023-07-31T13:56:23;7;6;
73973;PMS5003;62336;-26.094;27.994;2023-07-31T13:58:48;6;6;
73973;PMS5003;62336;-26.094;27.994;2023-07-31T14:01:13;5;5;
73973;PMS5003;62336;-26.094;27.994;2023-07-31T14:03:38;9;8;
73973;PMS5003;62336;-26.094;27.994;2023-07-31T14:06:04;11;10;
73973;PMS5003;62336;-26.094;27.994;2023-07-31T14:08:28;6;6;
73973;PMS5003;62336;-26.094;27.994;2023-07-31T14:10:53;6;6;
73973;PMS5003;62336;-26.094;27.994;2023-07-31T14:13:18;6;6;
73973;PMS5003;62336;-26.094;27.994;2023-07-31T14:15:44;7;6;
73973;PMS5003;62336;-26.094;27.994;2023-07-31T14:18:09;5;5;
73973;PMS5003;62336;-26.094;27.994;2023-07-31T14:20:34;5;3;
73973;PMS5003;62336;-26.094;27.994;2023-07-31T14:23:02;3;3;
73973;PMS5003;62336;-26.094;27.994;2023-07-31T14:25:32;4;4;
73973;PMS5003;62336;-26.094;27.994;2023-07-31T14:27:52;3;3;
73973;PMS5003;62336;-26.094;27.994;2023-07-31T14:30:17;3;2;
73973;PMS5003;62336;-26.094;27.994;2023-07-31T14:32:42;6;3;
73973;PMS5003;62336;-26.094;27.994;2023-07-31T14:35:08;5;5;
73973;PMS5003;62336;-26.094;27.994;2023-07-31T14:37:37;4;4;
73973;PMS5003;62336;-26.094;27.994;2023-07-31T14:39:58;2;2;
73973;PMS5003;62336;-26.094;27.994;2023-07-31T14:42:23;2;2;
73973;PMS5003;62336;-26.094;27.994;2023-07-31T14:44:48;3;3;
73973;PMS5003;62336;-26.094;27.994;2023-07-31T14:47:13;3;3;
73973;PMS5003;62336;-26.094;27.994;2023-07-31T14:49:38;3;3;
73973;PMS5003;62336;-26.094;27.994;2023-07-31T14:52:03;5;5;
73973;PMS5003;62336;-26.094;27.994;2023-07-31T14:54:28;4;4;
73973;PMS5003;62336;-26.094;27.994;2023-07-31T14:56:53;5;5;
73973;PMS5003;62336;-26.094;27.994;2023-07-31T14:59:18;3;3;
73973;PMS5003;62336;-26.094;27.994;2023-07-31T15:01:43;5;5;
73973;PMS5003;62336;-26.094;27.994;2023-07-31T15:04:08;4;3;
73973;PMS5003;62336;-26.094;27.994;2023-07-31T15:06:33;4;4;
73973;PMS5003;62336;-26.094;27.994;2023-07-31T15:08:58;3;3;
73973;PMS5003;62336;-26.094;27.994;2023-07-31T15:11:23;4;4;
73973;PMS5003;62336;-26.094;27.994;2023-07-31T15:13:48;3;3;
73973;PMS5003;62336;-26.094;27.994;2023-07-31T15:16:13;4;4;
73973;PMS5003;62336;-26.094;27.994;2023-07-31T15:18:38;2;2;
73973;PMS5003;62336;-26.094;27.994;2023-07-31T15:21:03;5;5;
73973;PMS5003;62336;-26.094;27.994;2023-07-31T15:23:28;4;4;
73973;PMS5003;62336;-26.094;27.994;2023-07-31T15:25:53;5;5;
73973;PMS5003;62336;-26.094;27.994;2023-07-31T15:28:19;4;4;
73973;PMS5003;62336;-26.094;27.994;2023-07-31T15:30:45;4;3;
73973;PMS5003;62336;-26.094;27.994;2023-07-31T15:33:10;4;4;
73973;PMS5003;62336;-26.094;27.994;2023-07-31T15:35:35;5;5;
73973;PMS5003;62336;-26.094;27.994;2023-07-31T15:38:00;3;3;
73973;PMS5003;62336;-26.094;27.994;2023-07-31T15:40:25;3;3;
73973;PMS5003;62336;-26.094;27.994;2023-07-31T15:42:50;4;4;
73973;PMS5003;62336;-26.094;27.994;2023-07-31T15:45:15;6;6;
73973;PMS5003;62336;-26.094;27.994;2023-07-31T15:47:40;5;4;
73973;PMS5003;62336;-26.094;27.994;2023-07-31T15:50:05;11;10;
73973;PMS5003;62336;-26.094;27.994;2023-07-31T15:52:30;11;10;
73973;PMS5003;62336;-26.094;27.994;2023-07-31T15:54:55;8;8;
73973;PMS5003;62336;-26.094;27.994;2023-07-31T15:57:20;9;8;
73973;PMS5003;62336;-26.094;27.994;2023-07-31T15:59:46;8;8;
73973;PMS5003;62336;-26.094;27.994;2023-07-31T16:02:11;8;8;
73973;PMS5003;62336;-26.094;27.994;2023-07-31T16:04:36;9;9;
73973;PMS5003;62336;-26.094;27.994;2023-07-31T16:07:01;8;8;
73973;PMS5003;62336;-26.094;27.994;2023-07-31T16:09:26;10;10;
73973;PMS5003;62336;-26.094;27.994;2023-07-31T16:11:51;11;11;
73973;PMS5003;62336;-26.094;27.994;2023-07-31T16:14:16;10;10;